Time;durP1;ratioP1;P1;durP2;ratioP2;P2;SDS_P1;SDS_P2;PMS_P1;PMS_P2;Temp;Humidity;BMP_temperature;BMP_pressure;BME280_temperature;BME280_humidity;BME280_pressure;Samples;Min_cycle;Max_cycle;Signal;HPM_P1;HPM_P2
2022/07/13 00:01:48;;;;;;;2.13;1.27;;;21.10;91.60;;;;;;5032592;28;20036;-78
2022/07/13 00:04:13;;;;;;;1.80;1.15;;;21.00;91.50;;;;;;5032296;28;20025;-77
2022/07/13 00:06:39;;;;;;;5.95;1.30;;;21.10;91.40;;;;;;5032092;28;20104;-78
2022/07/13 00:09:05;;;;;;;4.20;1.30;;;21.10;91.40;;;;;;5032339;28;20033;-77
2022/07/13 00:11:30;;;;;;;4.40;1.20;;;21.10;91.20;;;;;;5032231;28;20037;-77
2022/07/13 00:13:56;;;;;;;5.30;1.50;;;21.10;91.10;;;;;;5031722;28;20317;-75
2022/07/13 00:16:22;;;;;;;1.52;1.10;;;21.10;90.90;;;;;;5031832;28;20444;-77
2022/07/13 00:18:48;;;;;;;1.67;0.77;;;21.10;91.10;;;;;;5031763;28;20029;-76
2022/07/13 00:21:13;;;;;;;1.27;1.13;;;21.10;91.10;;;;;;5031764;28;20033;-78
2022/07/13 00:23:39;;;;;;;1.00;0.80;;;21.10;91.10;;;;;;5031919;28;20051;-76
2022/07/13 00:26:05;;;;;;;1.58;1.10;;;21.10;90.90;;;;;;5032296;28;20496;-75
2022/07/13 00:28:31;;;;;;;0.80;0.80;;;21.10;90.90;;;;;;5030541;28;20040;-76
2022/07/13 00:30:57;;;;;;;1.30;0.98;;;21.10;91.10;;;;;;5031868;28;20037;-76
2022/07/13 00:33:23;;;;;;;2.33;0.90;;;21.10;91.10;;;;;;5031618;28;20371;-76
2022/07/13 00:35:48;;;;;;;4.78;0.90;;;21.00;91.20;;;;;;5031365;28;20037;-75
2022/07/13 00:38:14;;;;;;;2.25;1.00;;;21.10;91.10;;;;;;5031460;28;20057;-76
2022/07/13 00:40:40;;;;;;;0.70;0.70;;;21.10;91.10;;;;;;5032389;28;20029;-76
2022/07/13 00:43:05;;;;;;;0.70;0.70;;;21.10;91.30;;;;;;5031506;28;20033;-76
2022/07/13 00:45:31;;;;;;;1.42;0.75;;;21.10;91.10;;;;;;5031398;28;20068;-77
2022/07/13 00:47:57;;;;;;;1.05;0.90;;;21.10;90.90;;;;;;5030192;28;20029;-77
2022/07/13 00:50:23;;;;;;;2.65;1.05;;;21.10;91.10;;;;;;5031206;28;20032;-77
2022/07/13 00:52:50;;;;;;;1.02;0.93;;;21.10;91.20;;;;;;5031553;28;20029;-76
2022/07/13 00:55:16;;;;;;;1.73;0.85;;;21.10;91.30;;;;;;5031080;28;20113;-76
2022/07/13 00:57:42;;;;;;;1.88;1.20;;;21.10;91.20;;;;;;5030042;28;20379;-76
2022/07/13 01:00:10;;;;;;;3.15;1.63;;;21.10;91.20;;;;;;5031004;28;20032;-76
2022/07/13 01:02:38;;;;;;;6.00;1.95;;;21.10;91.20;;;;;;5030819;28;20029;-76
2022/07/13 01:05:04;;;;;;;0.93;0.73;;;21.10;91.10;;;;;;5031475;28;20028;-75
2022/07/13 01:07:32;;;;;;;4.15;1.05;;;21.00;91.20;;;;;;5031061;28;20108;-76
2022/07/13 01:09:58;;;;;;;;;;;21.00;91.10;;;;;;5031312;28;20029;-77
2022/07/13 01:12:24;;;;;;;2.08;1.10;;;21.10;91.40;;;;;;5031026;28;19908;-76
2022/07/13 01:14:50;;;;;;;2.35;0.80;;;21.10;91.10;;;;;;5031228;28;20041;-74
2022/07/13 01:17:16;;;;;;;1.98;1.10;;;21.00;91.30;;;;;;5030647;28;20083;-77
2022/07/13 01:19:42;;;;;;;2.95;1.10;;;21.00;91.30;;;;;;5031841;28;20427;-77
2022/07/13 01:22:14;;;;;;;2.67;0.98;;;21.00;91.30;;;;;;5031099;28;20386;-76
2022/07/13 01:24:40;;;;;;;5.30;0.82;;;21.00;91.30;;;;;;5029593;28;20296;-76
2022/07/13 01:27:06;;;;;;;1.27;0.73;;;21.00;91.30;;;;;;5030940;28;20021;-76
2022/07/13 01:29:31;;;;;;;6.45;0.90;;;21.00;91.40;;;;;;5030878;28;20038;-76
2022/07/13 01:31:59;;;;;;;1.27;0.70;;;21.00;91.60;;;;;;5031050;28;20051;-76
2022/07/13 01:34:25;;;;;;;;;;;21.00;91.50;;;;;;5030056;28;20030;-78
2022/07/13 01:36:51;;;;;;;0.98;0.70;;;21.00;91.60;;;;;;5013714;28;20336;-78
2022/07/13 01:39:17;;;;;;;1.30;0.90;;;21.00;91.50;;;;;;5010491;28;20034;-77
2022/07/13 01:41:43;;;;;;;0.88;0.85;;;21.00;91.70;;;;;;5010301;28;20096;-76
2022/07/13 01:44:08;;;;;;;1.98;1.17;;;20.90;91.80;;;;;;5011126;28;20092;-77
2022/07/13 01:46:36;;;;;;;1.63;1.30;;;20.90;91.70;;;;;;5009645;28;20368;-77
2022/07/13 01:49:01;;;;;;;1.40;1.23;;;20.90;91.80;;;;;;5010780;28;20117;-78
2022/07/13 01:51:27;;;;;;;1.45;0.98;;;20.90;91.60;;;;;;5010909;28;20113;-78
2022/07/13 01:53:54;;;;;;;1.33;0.70;;;21.00;91.70;;;;;;5010574;28;20038;-77
2022/07/13 01:56:20;;;;;;;2.13;1.10;;;21.00;91.90;;;;;;5009567;28;20382;-79
2022/07/13 01:58:46;;;;;;;1.65;0.90;;;21.00;91.90;;;;;;5010995;28;20026;-77
2022/07/13 02:01:11;;;;;;;2.35;0.98;;;21.00;91.80;;;;;;5010924;28;20144;-76
2022/07/13 02:03:37;;;;;;;1.13;0.80;;;21.00;92.10;;;;;;5010835;28;20476;-77
2022/07/13 02:06:06;;;;;;;1.42;0.93;;;21.00;92.00;;;;;;5010838;28;20038;-76
2022/07/13 02:08:32;;;;;;;1.77;0.90;;;20.90;92.40;;;;;;5010838;28;20038;-76
2022/07/13 02:10:58;;;;;;;5.32;1.08;;;20.90;92.30;;;;;;5011167;28;20026;-77
2022/07/13 02:13:23;;;;;;;1.27;0.90;;;20.90;92.10;;;;;;5010887;28;20054;-77
2022/07/13 02:15:50;;;;;;;1.08;0.80;;;20.90;92.10;;;;;;5013195;28;20042;-76
2022/07/13 02:18:16;;;;;;;3.70;0.90;;;20.90;92.20;;;;;;5014278;28;20041;-77
2022/07/13 02:20:42;;;;;;;1.58;0.93;;;20.90;92.20;;;;;;5014488;28;20084;-76
2022/07/13 02:23:08;;;;;;;0.82;0.80;;;20.90;92.40;;;;;;5014680;28;20030;-77
2022/07/13 02:25:34;;;;;;;1.58;1.23;;;20.90;92.50;;;;;;5013132;28;20034;-77
2022/07/13 02:28:01;;;;;;;2.22;1.02;;;20.90;92.70;;;;;;5013176;28;20026;-76
2022/07/13 02:30:27;;;;;;;1.20;0.95;;;20.90;92.80;;;;;;5014252;28;20026;-77
2022/07/13 02:32:52;;;;;;;0.80;0.80;;;20.90;92.60;;;;;;5014164;28;20045;-78
2022/07/13 02:35:18;;;;;;;1.30;0.60;;;20.80;92.60;;;;;;5013980;28;20124;-77
2022/07/13 02:37:44;;;;;;;3.15;1.10;;;20.80;92.50;;;;;;5014602;28;20451;-76
2022/07/13 02:40:12;;;;;;;1.58;0.90;;;20.80;92.50;;;;;;5013724;28;20030;-76
2022/07/13 02:42:38;;;;;;;4.57;0.95;;;20.90;92.50;;;;;;5013918;28;20373;-77
2022/07/13 02:45:05;;;;;;;2.42;0.80;;;20.90;92.70;;;;;;5012993;28;20026;-78
2022/07/13 02:47:31;;;;;;;3.08;0.90;;;20.90;92.50;;;;;;5013811;28;20121;-78
2022/07/13 02:49:57;;;;;;;3.67;1.17;;;20.90;92.80;;;;;;5014393;28;20124;-78
2022/07/13 02:52:22;;;;;;;1.35;1.05;;;20.80;92.50;;;;;;5013659;28;20034;-77
2022/07/13 02:54:48;;;;;;;3.25;0.90;;;20.80;92.60;;;;;;5013551;28;20112;-77
2022/07/13 02:57:14;;;;;;;2.53;0.90;;;20.90;92.70;;;;;;5013980;28;20456;-78
2022/07/13 02:59:39;;;;;;;2.33;0.88;;;20.80;92.60;;;;;;5013613;28;20456;-78
2022/07/13 03:02:06;;;;;;;1.70;1.08;;;20.90;92.60;;;;;;5013091;28;20105;-79
2022/07/13 03:04:35;;;;;;;1.40;1.10;;;20.80;92.70;;;;;;5013938;28;20033;-79
2022/07/13 03:07:02;;;;;;;3.28;1.00;;;20.90;92.70;;;;;;5013701;28;20038;-79
2022/07/13 03:09:28;;;;;;;1.02;0.82;;;20.90;92.70;;;;;;5012501;28;20061;-78
2022/07/13 03:11:54;;;;;;;1.17;0.90;;;20.90;92.70;;;;;;5012643;28;20459;-79
2022/07/13 03:14:20;;;;;;;1.10;0.88;;;20.90;92.80;;;;;;5013516;28;20029;-78
2022/07/13 03:16:46;;;;;;;1.70;1.10;;;20.90;92.70;;;;;;5013642;28;20076;-77
2022/07/13 03:19:12;;;;;;;0.82;0.80;;;20.90;92.60;;;;;;5012248;28;20037;-78
2022/07/13 03:21:38;;;;;;;1.48;0.90;;;20.90;92.70;;;;;;5013334;28;20325;-77
2022/07/13 03:24:03;;;;;;;3.50;1.08;;;20.90;92.90;;;;;;5012349;28;20030;-79
2022/07/13 03:26:29;;;;;;;2.30;1.63;;;20.90;92.80;;;;;;5013132;28;20056;-78
2022/07/13 03:28:55;;;;;;;1.67;0.90;;;20.90;92.70;;;;;;5014024;28;20049;-79
2022/07/13 03:31:21;;;;;;;2.80;0.75;;;20.90;92.80;;;;;;5013265;28;20026;-78
2022/07/13 03:33:47;;;;;;;1.83;1.02;;;20.90;92.80;;;;;;5013395;28;20038;-77
2022/07/13 03:36:13;;;;;;;0.70;0.70;;;20.90;93.00;;;;;;5012905;28;20045;-77
2022/07/13 03:38:38;;;;;;;1.40;0.98;;;20.80;93.00;;;;;;5011956;28;20119;-79
2022/07/13 03:41:07;;;;;;;5.18;1.10;;;20.90;93.00;;;;;;5013383;28;20030;-78
2022/07/13 03:43:33;;;;;;;1.52;0.80;;;20.90;93.00;;;;;;5013209;28;20057;-76
2022/07/13 03:45:58;;;;;;;1.80;0.90;;;20.90;93.00;;;;;;5011590;28;20046;-78
2022/07/13 03:48:24;;;;;;;1.13;0.90;;;20.90;92.80;;;;;;5012798;28;20526;-77
2022/07/13 03:50:50;;;;;;;1.60;0.95;;;20.90;92.90;;;;;;5012674;28;20026;-77
2022/07/13 03:53:16;;;;;;;1.90;0.90;;;20.90;93.00;;;;;;5012687;28;20459;-77
2022/07/13 03:55:42;;;;;;;2.90;0.90;;;20.90;92.90;;;;;;5012561;28;20038;-76
2022/07/13 03:58:10;;;;;;;3.25;0.95;;;20.90;93.00;;;;;;5011338;28;20049;-76
2022/07/13 04:00:36;;;;;;;1.00;1.00;;;20.90;92.90;;;;;;5012572;28;20029;-77
2022/07/13 04:03:02;;;;;;;1.17;1.08;;;20.90;92.70;;;;;;5012498;28;20282;-77
2022/07/13 04:05:28;;;;;;;3.17;1.17;;;20.90;92.90;;;;;;5012416;28;20394;-78
2022/07/13 04:07:54;;;;;;;1.13;0.88;;;20.90;92.80;;;;;;5012718;28;20014;-77
2022/07/13 04:10:19;;;;;;;0.90;0.80;;;20.90;93.00;;;;;;5012231;28;20030;-77
2022/07/13 04:12:46;;;;;;;1.10;1.00;;;20.90;92.90;;;;;;5012239;28;20503;-78
2022/07/13 04:15:12;;;;;;;1.75;0.90;;;20.90;93.00;;;;;;5011939;28;20026;-77
2022/07/13 04:17:39;;;;;;;1.40;0.80;;;20.90;92.90;;;;;;5012196;28;20037;-78
2022/07/13 04:20:06;;;;;;;3.10;0.95;;;20.90;92.90;;;;;;5011165;28;20092;-78
2022/07/13 04:22:32;;;;;;;1.15;0.73;;;20.90;92.60;;;;;;5012069;28;20522;-78
2022/07/13 04:24:58;;;;;;;0.70;0.68;;;21.00;92.80;;;;;;5011000;28;20036;-77
2022/07/13 04:27:23;;;;;;;2.00;1.10;;;21.00;92.50;;;;;;5012154;28;20022;-78
2022/07/13 04:29:49;;;;;;;2.30;1.10;;;21.00;92.80;;;;;;5011974;28;20065;-76
2022/07/13 04:32:15;;;;;;;4.28;1.17;;;21.00;92.70;;;;;;5011850;28;20149;-76
2022/07/13 04:34:40;;;;;;;1.20;1.05;;;21.10;92.70;;;;;;5012392;28;20144;-76
2022/07/13 04:37:06;;;;;;;1.40;0.90;;;21.10;92.70;;;;;;5011282;28;20056;-76
2022/07/13 04:39:32;;;;;;;1.60;1.00;;;21.10;92.70;;;;;;5011536;28;20460;-75
2022/07/13 04:41:59;;;;;;;1.25;0.90;;;21.10;92.50;;;;;;5011490;28;20045;-76
2022/07/13 04:44:26;;;;;;;2.30;0.77;;;21.10;92.80;;;;;;5011506;28;20034;-76
2022/07/13 04:46:53;;;;;;;1.48;0.93;;;21.10;92.60;;;;;;5011960;28;20513;-75
2022/07/13 04:49:19;;;;;;;4.38;0.90;;;21.10;92.60;;;;;;5011545;28;20049;-78
2022/07/13 04:51:49;;;;;;;4.97;2.33;;;21.20;92.70;;;;;;5010348;28;20030;-76
2022/07/13 04:54:16;;;;;;;7.85;4.65;;;21.20;92.60;;;;;;5010494;28;20364;-77
2022/07/13 04:56:42;;;;;;;3.90;3.10;;;21.20;92.70;;;;;;5011341;28;20026;-77
2022/07/13 04:59:07;;;;;;;6.38;4.40;;;21.30;92.70;;;;;;5011582;28;20041;-78
2022/07/13 05:01:33;;;;;;;5.65;2.45;;;21.30;92.70;;;;;;5011386;28;20456;-77
2022/07/13 05:03:59;;;;;;;2.25;1.10;;;21.30;92.70;;;;;;5011111;28;20030;-77
2022/07/13 05:06:25;;;;;;;1.35;0.90;;;21.40;92.70;;;;;;5009939;28;20048;-77
2022/07/13 05:08:51;;;;;;;2.60;1.38;;;21.40;92.70;;;;;;5011147;28;20353;-76
2022/07/13 05:11:16;;;;;;;2.38;1.10;;;21.40;92.70;;;;;;5010805;28;20022;-75
2022/07/13 05:13:42;;;;;;;1.80;1.20;;;21.40;92.60;;;;;;5010271;28;20056;-76
2022/07/13 05:16:08;;;;;;;4.60;2.45;;;21.40;92.70;;;;;;5010868;28;20048;-78
2022/07/13 05:18:34;;;;;;;2.10;1.90;;;21.40;92.60;;;;;;5010919;28;20042;-77
2022/07/13 05:21:00;;;;;;;3.17;0.93;;;21.40;92.70;;;;;;5010846;28;20440;-76
2022/07/13 05:23:26;;;;;;;2.28;0.90;;;21.50;92.90;;;;;;5010892;28;20292;-76
2022/07/13 05:25:51;;;;;;;2.00;1.10;;;21.50;92.90;;;;;;5010152;28;20132;-76
2022/07/13 05:28:17;;;;;;;10.48;5.15;;;21.50;92.80;;;;;;5010953;28;20284;-76
2022/07/13 05:30:43;;;;;;;3.97;2.95;;;21.50;92.80;;;;;;5010851;28;20033;-77
2022/07/13 05:33:08;;;;;;;2.95;1.17;;;21.50;93.10;;;;;;5010998;28;20054;-73
2022/07/13 05:35:34;;;;;;;1.27;1.17;;;21.50;92.80;;;;;;5010649;28;20357;-74
2022/07/13 05:38:00;;;;;;;6.07;1.10;;;21.50;92.80;;;;;;5018469;28;20108;-74
2022/07/13 05:40:26;;;;;;;5.35;1.20;;;21.60;92.70;;;;;;5029183;28;20029;-75
2022/07/13 05:42:52;;;;;;;3.38;1.08;;;21.60;92.60;;;;;;5030005;28;20044;-75
2022/07/13 05:45:19;;;;;;;2.63;1.05;;;21.70;92.60;;;;;;5029973;28;20046;-75
2022/07/13 05:47:45;;;;;;;2.25;1.17;;;21.80;92.70;;;;;;5030022;28;20043;-75
2022/07/13 05:50:15;;;;;;;3.45;1.35;;;21.80;92.60;;;;;;5032096;28;20033;-75
2022/07/13 05:52:41;;;;;;;1.95;1.05;;;21.90;92.50;;;;;;5034775;28;20021;-75
2022/07/13 05:55:10;;;;;;;2.40;1.30;;;22.00;92.30;;;;;;5034024;28;20370;-75
2022/07/13 05:57:37;;;;;;;4.82;1.00;;;22.10;92.40;;;;;;5034115;28;20430;-74
2022/07/13 06:00:05;;;;;;;2.60;1.10;;;22.10;92.60;;;;;;5032781;28;20045;-74
2022/07/13 06:02:31;;;;;;;4.15;1.42;;;22.10;92.30;;;;;;5033921;28;20037;-79
2022/07/13 06:04:57;;;;;;;6.20;4.25;;;22.20;92.20;;;;;;5033256;28;20268;-72
2022/07/13 06:07:23;;;;;;;8.18;2.65;;;22.20;92.10;;;;;;5032425;28;20041;-70
2022/07/13 06:09:49;;;;;;;5.53;1.85;;;22.30;92.20;;;;;;5033488;28;20044;-71
2022/07/13 06:12:15;;;;;;;5.35;1.40;;;22.30;92.00;;;;;;5033708;28;20029;-70
2022/07/13 06:14:40;;;;;;;2.10;1.02;;;22.40;91.90;;;;;;5033213;28;20048;-71
2022/07/13 06:17:06;;;;;;;1.75;1.02;;;22.40;91.90;;;;;;5033884;28;20026;-71
2022/07/13 06:19:33;;;;;;;2.45;1.17;;;22.50;91.80;;;;;;5033375;28;20053;-72
2022/07/13 06:21:59;;;;;;;1.45;1.02;;;22.60;91.80;;;;;;5032377;28;20033;-71
2022/07/13 06:24:25;;;;;;;2.95;1.20;;;22.60;91.60;;;;;;5033389;28;20025;-72
2022/07/13 06:26:51;;;;;;;1.70;1.10;;;22.70;91.60;;;;;;5015849;28;20447;-70
2022/07/13 06:29:17;;;;;;;11.70;1.70;;;22.80;91.60;;;;;;5033488;28;20316;-72
2022/07/13 06:31:42;;;;;;;3.58;1.08;;;22.80;91.50;;;;;;5033522;28;20044;-70
2022/07/13 06:34:08;;;;;;;6.93;4.35;;;22.90;91.40;;;;;;5033030;28;20589;-71
2022/07/13 06:36:34;;;;;;;7.65;3.53;;;22.90;91.10;;;;;;5033212;28;20041;-71
2022/07/13 06:39:03;;;;;;;2.22;1.60;;;23.00;91.10;;;;;;5032918;28;20040;-71
2022/07/13 06:41:29;;;;;;;2.53;1.30;;;23.10;91.00;;;;;;5032872;28;20083;-70
2022/07/13 06:43:54;;;;;;;5.53;1.55;;;23.10;90.80;;;;;;5033649;28;20026;-71
2022/07/13 06:46:20;;;;;;;2.10;1.20;;;23.20;90.70;;;;;;5032844;28;20333;-71
2022/07/13 06:48:46;;;;;;;4.95;1.58;;;23.20;90.50;;;;;;5032963;28;20375;-70
2022/07/13 06:51:11;;;;;;;3.92;1.30;;;23.30;90.60;;;;;;5031577;28;20037;-71
2022/07/13 06:53:37;;;;;;;6.22;1.75;;;23.40;90.50;;;;;;5031758;28;20037;-71
2022/07/13 06:56:06;;;;;;;4.60;1.35;;;23.50;90.40;;;;;;5033149;28;20041;-71
2022/07/13 06:58:31;;;;;;;1.42;1.13;;;23.60;90.20;;;;;;5032981;28;20034;-71
2022/07/13 07:00:58;;;;;;;4.95;1.65;;;23.60;89.70;;;;;;5032506;28;20464;-71
2022/07/13 07:03:24;;;;;;;4.13;1.45;;;23.70;89.10;;;;;;5031765;28;20099;-70
2022/07/13 07:05:50;;;;;;;4.30;1.20;;;23.70;88.40;;;;;;5032582;28;20113;-71
2022/07/13 07:08:17;;;;;;;8.10;2.47;;;23.80;86.50;;;;;;5031413;28;20121;-71
2022/07/13 07:10:42;;;;;;;4.85;2.38;;;23.90;86.00;;;;;;5032922;28;20290;-71
2022/07/13 07:13:08;;;;;;;10.77;5.50;;;23.90;86.40;;;;;;5032420;28;20076;-70
2022/07/13 07:15:35;;;;;;;6.57;1.67;;;24.00;86.60;;;;;;5032443;28;20511;-70
2022/07/13 07:18:01;;;;;;;4.90;1.58;;;24.10;86.40;;;;;;5032510;28;20052;-71
2022/07/13 07:20:26;;;;;;;6.25;1.10;;;24.10;86.50;;;;;;5032316;28;20452;-71
2022/07/13 07:22:52;;;;;;;1.13;0.90;;;24.20;85.90;;;;;;5032790;28;20116;-71
2022/07/13 07:25:19;;;;;;;4.15;1.08;;;24.30;86.40;;;;;;5032471;28;20421;-71
2022/07/13 07:27:44;;;;;;;3.70;1.30;;;24.30;86.00;;;;;;5032102;28;20131;-71
2022/07/13 07:30:11;;;;;;;2.72;1.30;;;24.40;84.70;;;;;;5032056;28;20033;-71
2022/07/13 07:32:38;;;;;;;4.00;1.95;;;24.40;84.60;;;;;;5032396;28;20344;-71
2022/07/13 07:35:04;;;;;;;4.40;1.48;;;24.50;84.60;;;;;;5032616;28;20361;-72
2022/07/13 07:37:30;;;;;;;3.13;1.30;;;24.50;84.50;;;;;;5032108;28;20037;-71
2022/07/13 07:39:56;;;;;;;5.20;1.40;;;24.60;84.60;;;;;;5031895;28;20059;-71
2022/07/13 07:42:22;;;;;;;4.03;1.50;;;24.70;83.90;;;;;;5032230;28;20456;-72
2022/07/13 07:44:48;;;;;;;2.15;1.05;;;24.70;83.00;;;;;;5032031;28;20041;-71
2022/07/13 07:47:15;;;;;;;2.67;1.17;;;24.80;83.70;;;;;;5030613;28;20021;-71
2022/07/13 07:49:42;;;;;;;8.35;4.30;;;24.80;82.40;;;;;;5031201;28;20026;-72
2022/07/13 07:52:07;;;;;;;6.75;3.47;;;24.80;82.00;;;;;;5030462;28;20048;-71
2022/07/13 07:54:33;;;;;;;11.52;1.55;;;24.90;83.00;;;;;;5030594;28;20049;-71
2022/07/13 07:56:59;;;;;;;3.05;1.40;;;25.00;83.10;;;;;;5031611;28;20038;-71
2022/07/13 07:59:26;;;;;;;4.43;1.25;;;25.10;82.30;;;;;;5031109;28;20079;-71
2022/07/13 08:01:52;;;;;;;4.25;1.73;;;25.20;81.00;;;;;;5032191;28;20022;-71
2022/07/13 08:04:18;;;;;;;5.82;1.60;;;25.20;80.70;;;;;;5031714;28;20038;-71
2022/07/13 08:06:43;;;;;;;7.10;1.77;;;25.30;79.20;;;;;;5030498;28;20049;-71
2022/07/13 08:09:09;;;;;;;5.93;1.80;;;25.40;80.60;;;;;;5032056;28;20066;-71
2022/07/13 08:11:35;;;;;;;6.60;1.48;;;25.50;81.70;;;;;;5030055;28;20032;-72
2022/07/13 08:14:00;;;;;;;3.08;1.55;;;25.70;79.40;;;;;;5031056;28;20026;-72
2022/07/13 08:16:27;;;;;;;6.72;1.73;;;25.80;78.60;;;;;;5031518;28;20021;-72
2022/07/13 08:18:52;;;;;;;4.28;1.67;;;25.90;78.80;;;;;;5031319;28;20037;-71
2022/07/13 08:21:18;;;;;;;3.97;1.50;;;26.00;78.60;;;;;;5031040;28;20033;-71
2022/07/13 08:23:52;;;;;;;4.15;1.30;;;26.10;77.00;;;;;;5031214;28;20045;-71
2022/07/13 08:26:23;;;;;;;3.58;1.58;;;26.20;76.90;;;;;;5031124;28;20483;-71
2022/07/13 08:28:53;;;;;;;5.13;3.40;;;26.10;76.20;;;;;;5031732;28;20033;-70
2022/07/13 08:31:21;;;;;;;15.10;6.28;;;26.20;76.70;;;;;;5030966;28;20288;-72
2022/07/13 08:39:17;;;;;;;3.42;1.80;;;26.20;73.70;;;;;;5031043;28;20125;-76
2022/07/13 08:41:43;;;;;;;3.13;1.50;;;26.20;75.60;;;;;;5030806;28;20045;-75
2022/07/13 08:44:09;;;;;;;3.88;1.63;;;26.20;75.00;;;;;;5031714;28;20064;-74
2022/07/13 08:46:35;;;;;;;3.92;1.52;;;26.30;73.20;;;;;;5030886;28;20420;-75
2022/07/13 08:49:01;;;;;;;3.78;2.17;;;26.30;74.30;;;;;;5030774;28;20025;-75
2022/07/13 08:51:30;;;;;;;6.15;2.05;;;26.40;73.60;;;;;;5030745;28;20053;-75
2022/07/13 08:53:56;;;;;;;6.10;2.03;;;26.40;72.80;;;;;;5030503;28;20034;-74
2022/07/13 08:56:22;;;;;;;8.48;2.53;;;26.50;74.10;;;;;;5029803;28;20410;-75
2022/07/13 08:58:48;;;;;;;4.10;2.00;;;26.60;73.50;;;;;;5031005;28;20100;-75
2022/07/13 09:01:14;;;;;;;6.32;1.80;;;26.70;73.20;;;;;;5030859;28;20036;-75
2022/07/13 09:03:42;;;;;;;5.38;2.10;;;26.90;71.10;;;;;;5029691;28;20050;-75
2022/07/13 09:06:08;;;;;;;4.18;1.67;;;27.00;68.00;;;;;;5029407;28;20047;-77
2022/07/13 09:08:42;;;;;;;4.85;1.48;;;27.10;67.10;;;;;;5029317;28;20387;-76
2022/07/13 09:11:08;;;;;;;6.93;2.03;;;27.30;67.80;;;;;;5029698;28;20467;-76
2022/07/13 09:13:44;;;;;;;3.63;1.77;;;27.70;70.00;;;;;;5030538;28;20037;-76
2022/07/13 09:16:15;;;;;;;10.43;2.15;;;28.40;67.00;;;;;;5030460;28;20468;-74
2022/07/13 09:18:42;;;;;;;5.78;1.90;;;28.60;66.40;;;;;;5030087;28;20041;-76
2022/07/13 09:21:08;;;;;;;2.08;1.27;;;28.90;63.70;;;;;;5030455;28;20282;-77
2022/07/13 09:23:34;;;;;;;3.55;1.80;;;29.10;62.60;;;;;;5030158;28;20045;-76
2022/07/13 09:25:59;;;;;;;4.78;1.80;;;29.40;63.10;;;;;;5031051;28;20455;-75
2022/07/13 09:28:25;;;;;;;3.92;1.42;;;29.60;61.40;;;;;;5030159;28;20427;-76
2022/07/13 09:30:51;;;;;;;4.15;1.67;;;29.60;58.80;;;;;;5030195;28;20026;-76
2022/07/13 09:33:33;;;;;;;4.70;1.63;;;29.50;59.40;;;;;;5030188;28;20335;-75
2022/07/13 09:36:09;;;;;;;1.73;1.50;;;29.50;59.10;;;;;;5029056;28;20356;-75
2022/07/13 09:38:36;;;;;;;6.97;1.90;;;29.60;59.40;;;;;;5029963;28;20061;-75
2022/07/13 09:41:21;;;;;;;4.28;1.48;;;29.90;59.50;;;;;;5029428;28;20029;-73
2022/07/13 09:47:02;;;;;;;5.23;1.67;;;30.10;58.70;;;;;;5030406;28;20057;-74
2022/07/13 09:49:35;;;;;;;2.47;1.30;;;29.50;57.40;;;;;;5030273;28;20076;-75
2022/07/13 09:52:04;;;;;;;2.70;1.58;;;29.50;58.40;;;;;;5029184;28;20578;-74
2022/07/13 09:54:33;;;;;;;7.38;1.40;;;29.40;57.90;;;;;;5030068;28;20442;-75
2022/07/13 09:57:05;;;;;;;4.35;1.60;;;29.40;59.10;;;;;;5029965;28;20041;-75
2022/07/13 09:59:31;;;;;;;8.90;3.47;;;29.50;58.80;;;;;;5028588;28;20048;-74
2022/07/13 10:01:57;;;;;;;2.75;1.55;;;29.50;58.40;;;;;;5030488;28;20037;-74
2022/07/13 10:04:24;;;;;;;11.13;2.15;;;29.50;58.90;;;;;;5029796;28;20085;-72
2022/07/13 10:06:50;;;;;;;5.40;1.98;;;29.40;58.90;;;;;;5028829;28;20029;-73
2022/07/13 10:09:22;;;;;;;5.68;1.65;;;29.30;58.80;;;;;;5029769;28;20026;-76
2022/07/13 10:11:48;;;;;;;3.65;1.80;;;29.20;59.20;;;;;;5028893;28;20079;-74
2022/07/13 10:14:17;;;;;;;8.27;1.58;;;29.20;58.00;;;;;;5030075;28;20257;-75
2022/07/13 10:16:44;;;;;;;2.90;1.50;;;29.10;56.90;;;;;;5030219;28;20108;-75
2022/07/13 10:19:11;;;;;;;7.13;2.00;;;29.00;56.80;;;;;;5028687;28;20404;-75
2022/07/13 10:22:04;;;;;;;1.65;1.30;;;28.80;56.40;;;;;;5029352;28;20095;-76
2022/07/13 10:24:30;;;;;;;2.45;1.52;;;28.90;57.00;;;;;;5029695;28;20357;-74
2022/07/13 10:27:26;;;;;;;6.53;2.13;;;28.90;57.10;;;;;;5029666;28;20070;-76
2022/07/13 10:30:01;;;;;;;3.08;1.50;;;29.00;57.60;;;;;;5029757;28;20049;-75
2022/07/13 10:32:29;;;;;;;4.57;1.90;;;29.10;57.50;;;;;;5029368;28;20052;-75
2022/07/13 10:35:09;;;;;;;1.75;1.50;;;29.10;57.90;;;;;;5030457;28;20033;-76
2022/07/13 10:37:58;;;;;;;7.07;1.67;;;29.00;57.50;;;;;;5033876;28;20091;-74
2022/07/13 10:40:34;;;;;;;3.05;1.30;;;29.20;57.90;;;;;;5033181;28;20072;-75
2022/07/13 10:43:01;;;;;;;4.20;1.65;;;29.30;57.90;;;;;;5033145;28;20119;-74
2022/07/13 10:45:33;;;;;;;7.72;1.63;;;29.40;57.90;;;;;;5033550;28;20534;-75
2022/07/13 10:47:59;;;;;;;6.28;1.77;;;29.40;58.00;;;;;;5033412;28;20120;-74
2022/07/13 10:50:46;;;;;;;5.45;1.55;;;29.50;57.50;;;;;;5033380;28;20087;-84
2022/07/13 10:53:13;;;;;;;3.67;1.90;;;29.40;58.10;;;;;;5033654;28;20034;-74
2022/07/13 10:55:49;;;;;;;2.50;1.90;;;29.50;58.00;;;;;;5033579;28;20049;-74
2022/07/13 10:58:30;;;;;;;14.77;2.00;;;29.60;57.90;;;;;;5032043;28;20044;-74
2022/07/13 11:00:57;;;;;;;1.98;1.33;;;29.80;58.30;;;;;;5032998;28;20085;-74
2022/07/13 11:03:35;;;;;;;14.48;1.95;;;29.80;58.00;;;;;;5031835;28;20044;-75
2022/07/13 11:06:12;;;;;;;7.60;1.75;;;29.70;58.60;;;;;;5033113;28;20088;-74
2022/07/13 11:08:39;;;;;;;5.40;1.85;;;29.70;58.10;;;;;;5031461;28;20416;-73
2022/07/13 11:11:13;;;;;;;13.02;2.05;;;29.70;58.60;;;;;;5033594;28;20452;-75
2022/07/13 11:13:40;;;;;;;13.05;2.50;;;29.80;59.10;;;;;;5032982;28;20040;-75
2022/07/13 11:16:07;;;;;;;4.88;2.15;;;29.90;58.60;;;;;;5031561;28;20117;-77
2022/07/13 11:18:34;;;;;;;;;;;29.90;58.40;;;;;;5033321;28;20104;-76
2022/07/13 11:21:10;;;;;;;5.40;1.80;;;29.90;58.70;;;;;;5032698;28;19913;-74
2022/07/13 11:26:48;;;;;;;3.95;1.60;;;30.10;58.90;;;;;;5032176;28;20068;-74
2022/07/13 11:29:17;;;;;;;;;;;30.00;58.70;;;;;;5033116;28;20179;-75
2022/07/13 11:31:43;;;;;;;5.57;2.03;;;30.10;58.90;;;;;;5031857;28;19986;-73
2022/07/13 11:34:09;;;;;;;3.30;1.65;;;30.20;59.10;;;;;;5031331;28;20120;-72
2022/07/13 11:36:35;;;;;;;2.00;1.58;;;30.20;58.90;;;;;;5032598;28;20192;-74
2022/07/13 11:39:01;;;;;;;3.53;1.40;;;30.30;58.90;;;;;;5031252;28;20455;-73
2022/07/13 11:41:27;;;;;;;4.78;1.77;;;30.50;59.20;;;;;;5030977;28;20179;-75
2022/07/13 11:43:54;;;;;;;7.55;1.48;;;30.70;59.40;;;;;;5031870;28;20044;-76
2022/07/13 11:46:28;;;;;;;4.53;1.60;;;30.80;58.90;;;;;;5032473;28;20475;-74
2022/07/13 11:49:06;;;;;;;4.88;1.63;;;30.90;59.10;;;;;;5031267;28;20053;-75
2022/07/13 11:51:32;;;;;;;3.78;1.40;;;31.00;58.80;;;;;;5032130;28;20112;-76
2022/07/13 11:54:17;;;;;;;2.05;1.58;;;30.90;59.20;;;;;;5031917;28;20087;-74
2022/07/13 11:56:51;;;;;;;5.68;2.65;;;30.80;59.00;;;;;;5031931;28;20283;-74
2022/07/13 11:59:36;;;;;;;4.35;1.98;;;30.70;59.10;;;;;;5032172;28;20038;-73
2022/07/13 12:02:03;;;;;;;2.60;1.20;;;30.80;59.30;;;;;;5032358;28;20109;-73
2022/07/13 12:04:30;;;;;;;4.28;1.50;;;30.80;59.30;;;;;;5031973;28;20506;-75
2022/07/13 12:07:19;;;;;;;1.98;1.65;;;30.50;59.10;;;;;;5032097;28;20036;-75
2022/07/13 12:10:05;;;;;;;9.75;1.75;;;30.50;59.60;;;;;;5032338;28;20116;-74
2022/07/13 12:12:33;;;;;;;3.58;1.83;;;30.50;60.00;;;;;;5032238;28;20029;-74
2022/07/13 12:14:59;;;;;;;3.85;1.70;;;30.50;59.40;;;;;;5032197;28;20033;-74
2022/07/13 12:17:26;;;;;;;4.95;1.45;;;30.50;59.50;;;;;;5031069;28;20029;-76
2022/07/13 12:20:07;;;;;;;2.97;1.70;;;30.60;59.00;;;;;;5032766;28;20099;-75
2022/07/13 12:22:33;;;;;;;8.02;1.88;;;30.60;59.00;;;;;;5032168;28;20026;-75
2022/07/13 12:24:59;;;;;;;2.40;1.55;;;30.60;58.90;;;;;;5031529;28;20040;-75
2022/07/13 12:27:28;;;;;;;4.82;1.65;;;30.70;58.80;;;;;;5031181;28;20538;-73
2022/07/13 12:30:08;;;;;;;3.88;1.73;;;30.50;58.20;;;;;;5031700;28;20139;-74
2022/07/13 12:33:00;;;;;;;7.28;2.03;;;30.50;57.70;;;;;;5032072;28;20057;-76
2022/07/13 12:35:35;;;;;;;2.15;1.27;;;30.40;57.70;;;;;;5031587;28;20173;-74
2022/07/13 12:38:03;;;;;;;7.95;1.95;;;30.20;57.90;;;;;;5031993;28;20009;-77
2022/07/13 12:40:52;;;;;;;4.63;1.50;;;30.20;58.40;;;;;;5031443;28;20040;-75
2022/07/13 12:43:26;;;;;;;3.92;1.60;;;30.10;58.60;;;;;;5031298;28;20033;-71
2022/07/13 12:45:53;;;;;;;2.90;1.70;;;30.00;58.50;;;;;;5030884;28;20022;-72
2022/07/13 12:48:32;;;;;;;4.18;1.83;;;29.90;59.00;;;;;;5031290;28;20041;-69
2022/07/13 12:51:12;;;;;;;2.90;1.50;;;29.80;59.30;;;;;;5031141;28;20045;-71
2022/07/13 12:53:48;;;;;;;5.95;3.08;;;29.80;59.70;;;;;;5031444;28;20029;-70
2022/07/13 12:56:18;;;;;;;7.77;3.00;;;29.80;59.70;;;;;;5030844;28;20037;-67
2022/07/13 12:58:54;;;;;;;9.80;3.05;;;29.80;59.70;;;;;;5031229;28;20029;-72
2022/07/13 13:01:37;;;;;;;3.08;1.80;;;29.70;60.20;;;;;;5031023;28;20548;-72
2022/07/13 13:04:10;;;;;;;7.07;2.00;;;29.70;60.50;;;;;;5031006;28;20114;-72